This is the latest recevied weather packets stored in our database for station/object LZ0VRC-10. If no packets are shown the sender has not sent any weather packets the latest 10 day(s).
| Time | Temp. | Humidity | Pressure | Rain* | Wind** | Luminosity | Snow |
|---|---|---|---|---|---|---|---|
| 1777707904 | 14.44° C | 37% | 1024.2 hPa | - | - | - | - |
| 1777707012 | 13.89° C | 37% | 1024.3 hPa | - | - | - | - |
| 1777707004 | 13.89° C | 37% | 1024.3 hPa | - | - | - | - |
| 1777706112 | 13.89° C | 37% | 1024.3 hPa | - | - | - | - |
| 1777706104 | 13.89° C | 37% | 1024.3 hPa | - | - | - | - |
| 1777705212 | 13.33° C | 36% | 1024.1 hPa | - | - | - | - |
| 1777705204 | 13.33° C | 36% | 1024.1 hPa | - | - | - | - |
| 1777704305 | 12.78° C | 41% | 1024.2 hPa | - | - | - | - |
| 1777703400 | 13.89° C | 39% | 1024.4 hPa | - | - | - | - |
| 1777701604 | 10.56° C | 51% | 1024.2 hPa | - | - | - | - |
| 1777700705 | 10° C | 53% | 1024.2 hPa | - | - | - | - |
| 1777699805 | 7.78° C | 62% | 1024.2 hPa | - | - | - | - |
| 1777698905 | 7.78° C | 60% | 1024.2 hPa | - | - | - | - |
| 1777698010 | 6.11° C | 65% | 1024.1 hPa | - | - | - | - |
| 1777698005 | 6.11° C | 65% | 1024.1 hPa | - | - | - | - |
| 1777697110 | 6.11° C | 66% | 1024.1 hPa | - | - | - | - |
| 1777697105 | 6.11° C | 66% | 1024.1 hPa | - | - | - | - |
| 1777696210 | 5° C | 71% | 1024.1 hPa | - | - | - | - |
| 1777696205 | 5° C | 71% | 1024.1 hPa | - | - | - | - |
| 1777695305 | 4.44° C | 74% | 1024.2 hPa | - | - | - | - |
| 1777694405 | 3.89° C | 76% | 1024 hPa | - | - | - | - |
| 1777693510 | 3.89° C | 77% | 1024.1 hPa | - | - | - | - |
| 1777693505 | 3.89° C | 77% | 1024.1 hPa | - | - | - | - |
| 1777692610 | 3.89° C | 77% | 1024 hPa | - | - | - | - |
| 1777692605 | 3.89° C | 77% | 1024 hPa | - | - | - | - |
* Rain since midnight (hover to see other rain measurements)
** Current wind speed in m/s (hover to see current wind gust speed)